Ana Sayfa
METAR-TAF:

METAR-TAF

Havaalanları :

Wiarton, Ontario, Kanada

Enlem: 44-45N, Boylam: 081-06W, yükseklik: 222 m

Güncel hava durumu gözlemi

Rapor saat 19:00 UTC de 1 saat ve 9 dakika önce yapıldı.
Rüzgar batıdan 5 kt
Sıcaklık 4°C
Nem 65%
Basınç 1013 hPa
Görüş mesafesi: 24.1 km
2200 ft yükseklikte az bulutlu
25000 ft yükseklikte parçalı çok bulutlu

METAR: CYVV 241900Z 26005KT 15SM FEW022 BKN250 04/M02 A2990 RMK CU1CI7 CU TR SLP133

Saat: 15:09 (20:09 UTC)

Tahmin

Rapor saat 19:41 UTC de 28 dakika önce yapıldı.
Ayın 24'si saat 20 UTC'den ayın 24'si saat 24 UTC'ye kadar geçerli Tahmin
Rüzgar batıdan 8 kt
Görüş mesafesi: 10 km
2500 ft yükseklikte az bulutlu
24000 ft yükseklikte parçalı bulutlu

TAF: CYVV 241941Z 2420/2424 28008KT P6SM FEW025 SCT240 RMK NXT FCST WILL BE ISSUED AT 251145Z

4.000'den fazla havaalanı için hava durumu gözlemleri ve tahminleri (METAR ve TAF raporları).

Kullanılabilir istasyonlar harita üzerinde sarı ve kırmızı noktalarla gösterilir.

İstasyonun adını görmek için fareyi noktanın üzerinde gezdirin.

Sonrasında hava gözlem ve tahminlerini görmek için tıklayın.

Haritayı değiştirmek için: yaklaştırmak için siyah artı işaretli yeşil düğmeye ve uzaklaştırmak için de eksi işaretli düğmeye hızla tıklayın; bitişik haritalar için yeşil okları kullanın.


METAR-TAF: